createdAt,value
2018-07-04T00:04:14.418Z,61.60
2018-07-04T00:06:54.227Z,62.00
2018-07-04T00:12:07.779Z,62.00
2018-07-04T00:14:47.792Z,62.20
2018-07-04T00:17:27.995Z,62.90
2018-07-04T00:22:41.704Z,63.30
2018-07-04T00:25:21.520Z,63.80
2018-07-04T00:28:02.407Z,64.00
2018-07-04T00:30:42.209Z,63.90
2018-07-04T00:33:22.180Z,64.00
2018-07-04T00:36:02.020Z,64.30
2018-07-04T00:46:23.953Z,63.90
2018-07-04T00:49:03.945Z,64.10
2018-07-04T00:54:17.659Z,64.30
2018-07-04T00:56:57.760Z,64.80
2018-07-04T00:59:37.744Z,64.40
2018-07-04T01:02:17.831Z,63.90
2018-07-04T01:04:57.861Z,64.40
2018-07-04T01:07:37.670Z,65.10
2018-07-04T01:12:52.077Z,65.00
2018-07-04T01:18:05.855Z,64.60
2018-07-04T01:23:25.223Z,65.40
2018-07-04T01:26:05.117Z,65.50
2018-07-04T01:28:48.303Z,65.80
2018-07-04T01:31:28.390Z,66.50
2018-07-04T01:34:08.746Z,66.50
2018-07-04T01:39:22.786Z,67.30
2018-07-04T01:44:36.726Z,66.80
2018-07-04T01:49:50.373Z,67.40
2018-07-04T01:55:04.113Z,67.30
2018-07-04T01:57:44.700Z,67.30
2018-07-04T02:00:24.458Z,66.80
2018-07-04T02:03:04.540Z,66.40
2018-07-04T02:08:18.883Z,66.70
2018-07-04T02:10:58.823Z,67.00
2018-07-04T02:13:38.540Z,66.80
2018-07-04T02:16:18.679Z,66.70
2018-07-04T02:21:32.443Z,66.60
2018-07-04T02:24:13.123Z,66.40
2018-07-04T02:26:52.948Z,66.40
2018-07-04T02:32:06.763Z,66.40
2018-07-04T02:37:20.243Z,66.40
2018-07-04T02:40:00.155Z,66.70
2018-07-04T02:42:40.104Z,66.80
2018-07-04T02:45:20.012Z,66.80
2018-07-04T02:55:41.658Z,67.30
2018-07-04T03:07:32.530Z,67.80
2018-07-04T03:10:12.546Z,68.00
2018-07-04T03:15:26.241Z,68.00
2018-07-04T03:23:13.614Z,67.10
2018-07-04T03:25:53.486Z,67.10
2018-07-04T03:28:34.195Z,67.10
2018-07-04T03:33:47.876Z,67.70
2018-07-04T03:36:27.627Z,67.90
2018-07-04T03:39:07.887Z,68.20
2018-07-04T03:49:30.316Z,69.00
2018-07-04T03:52:10.396Z,68.60
2018-07-04T03:54:50.139Z,68.90
2018-07-04T04:02:37.820Z,69.70
2018-07-04T04:05:18.574Z,69.60
2018-07-04T04:10:32.237Z,69.20
2018-07-04T04:13:12.113Z,69.20
2018-07-04T04:18:25.892Z,69.20
2018-07-04T04:21:06.027Z,68.80
2018-07-04T04:23:45.877Z,69.00
2018-07-04T04:26:25.811Z,69.00
2018-07-04T04:29:05.595Z,69.60
2018-07-04T04:31:45.578Z,68.90
2018-07-04T04:34:25.460Z,69.20
2018-07-04T04:37:05.435Z,68.80
2018-07-04T04:44:53.016Z,69.60
2018-07-04T04:47:33.785Z,69.80
2018-07-04T04:55:22.329Z,68.70
2018-07-04T04:58:02.205Z,68.70
2018-07-04T05:00:42.040Z,69.20
2018-07-04T05:03:21.901Z,69.00
2018-07-04T05:08:35.839Z,68.60
2018-07-04T05:11:15.815Z,68.40
2018-07-04T05:16:29.775Z,68.00
2018-07-04T05:19:09.769Z,68.10
2018-07-04T05:24:23.398Z,67.60
2018-07-04T05:29:37.174Z,67.10
2018-07-04T05:32:17.692Z,66.50
2018-07-04T05:37:31.870Z,66.90
2018-07-04T05:40:20.038Z,66.50
2018-07-04T05:43:01.528Z,66.50
2018-07-04T05:55:58.897Z,66.00
2018-07-04T06:06:21.143Z,66.10
2018-07-04T06:09:03.022Z,66.30
2018-07-04T06:11:43.150Z,66.50
2018-07-04T06:27:13.724Z,66.00
2018-07-04T06:35:01.965Z,66.30
2018-07-04T06:47:33.783Z,66.10
2018-07-04T06:55:08.846Z,66.00
2018-07-04T06:57:36.691Z,65.50
2018-07-04T07:02:32.046Z,65.40
2018-07-04T07:15:29.549Z,64.20
2018-07-04T07:44:24.579Z,61.40
2018-07-04T07:49:38.601Z,60.20
2018-07-04T07:52:18.817Z,60.90
2018-07-04T08:38:36.552Z,51.30
2018-07-04T08:43:53.112Z,49.50
2018-07-04T09:17:20.712Z,47.40
2018-07-04T10:24:15.671Z,57.30
2018-07-04T10:29:30.921Z,61.30
2018-07-04T10:47:34.538Z,61.50
2018-07-04T10:58:05.397Z,62.60
2018-07-04T11:00:46.917Z,63.00
2018-07-04T11:08:38.911Z,64.10
2018-07-04T11:11:18.745Z,64.90
2018-07-04T11:16:33.078Z,66.00
2018-07-04T11:32:15.144Z,69.70
2018-07-04T11:52:58.731Z,72.60
2018-07-04T12:00:22.749Z,72.40
2018-07-04T12:12:48.472Z,70.30
2018-07-04T12:17:44.202Z,68.70
2018-07-04T12:25:07.170Z,65.10
2018-07-04T12:34:58.271Z,62.30
2018-07-04T12:39:53.488Z,59.90
2018-07-04T12:44:53.071Z,57.70
2018-07-04T12:55:17.297Z,57.30
2018-07-04T12:58:03.018Z,56.00
2018-07-04T13:03:35.588Z,56.90
2018-07-04T13:11:40.794Z,54.50
2018-07-04T13:14:22.700Z,55.70
2018-07-04T13:17:08.636Z,55.20
2018-07-04T13:41:27.959Z,49.50
2018-07-04T13:57:45.177Z,45.40
2018-07-04T14:05:40.647Z,42.80
2018-07-04T14:24:28.113Z,47.10
2018-07-04T14:40:26.317Z,50.60
2018-07-04T14:48:20.483Z,52.20
2018-07-04T14:53:36.825Z,52.80
2018-07-04T15:04:00.296Z,60.40
2018-07-04T15:22:03.087Z,58.10
2018-07-04T16:00:40.637Z,54.40
2018-07-04T16:03:20.386Z,54.40
2018-07-04T16:06:00.324Z,54.50
2018-07-04T16:21:30.267Z,52.40
2018-07-04T16:26:43.996Z,51.60
2018-07-04T16:44:49.177Z,51.20
2018-07-04T16:47:29.282Z,50.70
2018-07-04T17:21:00.727Z,50.40
2018-07-04T17:26:14.694Z,50.70
2018-07-04T17:34:05.466Z,50.80
2018-07-04T17:36:45.300Z,51.80
2018-07-04T17:49:41.429Z,55.40
2018-07-04T18:00:04.110Z,56.10
2018-07-04T18:13:00.582Z,57.60
2018-07-04T18:15:40.512Z,57.00
2018-07-04T18:18:20.632Z,56.90
2018-07-04T18:28:42.556Z,58.20
2018-07-04T18:31:22.403Z,58.90
2018-07-04T18:54:36.259Z,61.40
2018-07-04T19:02:25.429Z,61.60
2018-07-04T19:07:46.109Z,59.80
2018-07-04T19:23:44.867Z,59.00
2018-07-04T19:44:27.514Z,59.50
2018-07-04T19:57:38.971Z,63.30
2018-07-04T20:19:12.344Z,63.40
2018-07-04T20:21:58.302Z,63.30
2018-07-04T20:24:47.942Z,63.70
2018-07-04T20:27:38.269Z,63.50
2018-07-04T20:30:29.635Z,64.00
2018-07-04T20:33:24.089Z,63.80
2018-07-04T20:36:09.799Z,63.70
2018-07-04T20:38:54.462Z,63.30
2018-07-04T20:41:43.933Z,63.40
2018-07-04T20:44:26.451Z,62.60
2018-07-04T20:47:10.232Z,62.60
2018-07-04T20:52:51.944Z,61.80
2018-07-04T20:55:37.158Z,62.00
2018-07-04T21:01:00.873Z,62.30
2018-07-04T21:03:48.618Z,62.50
2018-07-04T21:09:14.191Z,63.10
2018-07-04T21:11:55.894Z,63.80
